sensor_id;sensor_type;location;lat;lon;timestamp;P1;durP1;ratioP1;P2;durP2;ratioP2
41952;SDS011;63613;28.200;112.870;2024-02-23T14:55:01;21.08;;;16.13;;
41952;SDS011;63613;28.200;112.870;2024-02-23T14:57:30;18.92;;;15.32;;
41952;SDS011;63613;28.200;112.870;2024-02-23T14:59:59;21.20;;;17.63;;
41952;SDS011;63613;28.200;112.870;2024-02-23T15:02:29;20.95;;;16.50;;
41952;SDS011;63613;28.200;112.870;2024-02-23T15:04:58;20.38;;;17.05;;
41952;SDS011;63613;28.200;112.870;2024-02-23T15:07:29;21.20;;;16.50;;
41952;SDS011;63613;28.200;112.870;2024-02-23T15:10:01;18.38;;;15.75;;
41952;SDS011;63613;28.200;112.870;2024-02-23T15:12:35;20.10;;;16.00;;
41952;SDS011;63613;28.200;112.870;2024-02-23T15:15:04;18.65;;;16.25;;
41952;SDS011;63613;28.200;112.870;2024-02-23T15:17:34;20.48;;;17.10;;
41952;SDS011;63613;28.200;112.870;2024-02-23T15:20:04;20.98;;;16.67;;
41952;SDS011;63613;28.200;112.870;2024-02-23T15:22:34;19.10;;;14.93;;
41952;SDS011;63613;28.200;112.870;2024-02-23T15:25:08;17.23;;;14.60;;
41952;SDS011;63613;28.200;112.870;2024-02-23T15:27:39;19.20;;;15.85;;
41952;SDS011;63613;28.200;112.870;2024-02-23T15:30:08;18.30;;;15.45;;
41952;SDS011;63613;28.200;112.870;2024-02-23T15:32:37;19.90;;;16.67;;
41952;SDS011;63613;28.200;112.870;2024-02-23T15:35:07;19.77;;;16.05;;
41952;SDS011;63613;28.200;112.870;2024-02-23T15:37:36;20.67;;;16.00;;
41952;SDS011;63613;28.200;112.870;2024-02-23T15:40:07;18.23;;;15.50;;
41952;SDS011;63613;28.200;112.870;2024-02-23T15:42:38;19.30;;;15.55;;
41952;SDS011;63613;28.200;112.870;2024-02-23T15:45:07;19.08;;;15.27;;
41952;SDS011;63613;28.200;112.870;2024-02-23T15:47:37;18.35;;;15.43;;
41952;SDS011;63613;28.200;112.870;2024-02-23T15:50:06;18.38;;;15.27;;
41952;SDS011;63613;28.200;112.870;2024-02-23T15:52:35;18.35;;;16.15;;
41952;SDS011;63613;28.200;112.870;2024-02-23T15:55:07;16.02;;;13.18;;
41952;SDS011;63613;28.200;112.870;2024-02-23T15:57:38;16.75;;;13.25;;
41952;SDS011;63613;28.200;112.870;2024-02-23T16:00:09;17.60;;;13.90;;
41952;SDS011;63613;28.200;112.870;2024-02-23T16:02:38;17.55;;;14.32;;
41952;SDS011;63613;28.200;112.870;2024-02-23T16:05:09;19.95;;;15.43;;
41952;SDS011;63613;28.200;112.870;2024-02-23T16:07:38;19.52;;;15.05;;
41952;SDS011;63613;28.200;112.870;2024-02-23T16:10:07;17.20;;;14.13;;
41952;SDS011;63613;28.200;112.870;2024-02-23T16:12:39;20.85;;;16.13;;
41952;SDS011;63613;28.200;112.870;2024-02-23T16:15:08;18.95;;;15.27;;
41952;SDS011;63613;28.200;112.870;2024-02-23T16:17:38;18.15;;;14.82;;
41952;SDS011;63613;28.200;112.870;2024-02-23T16:20:07;18.40;;;15.65;;
41952;SDS011;63613;28.200;112.870;2024-02-23T16:22:37;41.28;;;29.67;;
41952;SDS011;63613;28.200;112.870;2024-02-23T16:25:06;42.67;;;25.20;;
41952;SDS011;63613;28.200;112.870;2024-02-23T16:27:37;32.22;;;22.13;;
41952;SDS011;63613;28.200;112.870;2024-02-23T16:30:09;30.33;;;21.48;;
41952;SDS011;63613;28.200;112.870;2024-02-23T16:32:39;23.25;;;17.88;;
41952;SDS011;63613;28.200;112.870;2024-02-23T16:35:09;25.65;;;18.05;;
41952;SDS011;63613;28.200;112.870;2024-02-23T16:40:20;27.42;;;20.08;;
41952;SDS011;63613;28.200;112.870;2024-02-23T16:42:55;27.85;;;20.67;;
41952;SDS011;63613;28.200;112.870;2024-02-23T16:45:25;25.70;;;19.20;;
41952;SDS011;63613;28.200;112.870;2024-02-23T16:47:56;24.80;;;18.60;;
41952;SDS011;63613;28.200;112.870;2024-02-23T16:50:27;21.42;;;18.08;;
41952;SDS011;63613;28.200;112.870;2024-02-23T16:52:56;21.60;;;17.45;;
41952;SDS011;63613;28.200;112.870;2024-02-23T16:55:27;22.58;;;16.60;;
41952;SDS011;63613;28.200;112.870;2024-02-23T16:57:58;23.58;;;16.83;;
41952;SDS011;63613;28.200;112.870;2024-02-23T17:00:28;22.13;;;16.80;;
41952;SDS011;63613;28.200;112.870;2024-02-23T17:02:57;24.88;;;18.05;;
41952;SDS011;63613;28.200;112.870;2024-02-23T17:05:26;26.13;;;20.45;;
41952;SDS011;63613;28.200;112.870;2024-02-23T17:07:55;22.92;;;17.83;;
41952;SDS011;63613;28.200;112.870;2024-02-23T17:10:25;26.42;;;17.75;;
41952;SDS011;63613;28.200;112.870;2024-02-23T17:12:54;24.40;;;18.63;;
41952;SDS011;63613;28.200;112.870;2024-02-23T17:15:23;22.88;;;18.17;;
41952;SDS011;63613;28.200;112.870;2024-02-23T17:17:54;21.15;;;17.58;;
41952;SDS011;63613;28.200;112.870;2024-02-23T17:20:23;24.20;;;18.90;;
41952;SDS011;63613;28.200;112.870;2024-02-23T17:22:53;24.15;;;18.42;;
41952;SDS011;63613;28.200;112.870;2024-02-23T17:25:22;24.45;;;17.92;;
41952;SDS011;63613;28.200;112.870;2024-02-23T17:27:51;24.00;;;17.65;;
41952;SDS011;63613;28.200;112.870;2024-02-23T17:30:19;25.80;;;18.38;;
41952;SDS011;63613;28.200;112.870;2024-02-23T17:32:48;22.38;;;16.75;;
41952;SDS011;63613;28.200;112.870;2024-02-23T17:35:18;23.05;;;17.27;;
41952;SDS011;63613;28.200;112.870;2024-02-23T17:37:47;22.98;;;17.20;;
41952;SDS011;63613;28.200;112.870;2024-02-23T17:40:16;21.13;;;16.35;;
41952;SDS011;63613;28.200;112.870;2024-02-23T17:42:45;22.48;;;17.90;;
41952;SDS011;63613;28.200;112.870;2024-02-23T17:45:13;24.33;;;17.95;;
41952;SDS011;63613;28.200;112.870;2024-02-23T17:47:43;21.95;;;16.40;;
41952;SDS011;63613;28.200;112.870;2024-02-23T17:50:12;20.55;;;17.45;;
41952;SDS011;63613;28.200;112.870;2024-02-23T17:52:40;22.83;;;17.20;;
41952;SDS011;63613;28.200;112.870;2024-02-23T17:55:09;19.92;;;17.10;;
41952;SDS011;63613;28.200;112.870;2024-02-23T17:57:38;22.15;;;18.02;;
41952;SDS011;63613;28.200;112.870;2024-02-23T18:00:10;20.27;;;16.67;;
41952;SDS011;63613;28.200;112.870;2024-02-23T18:02:39;23.73;;;17.42;;
41952;SDS011;63613;28.200;112.870;2024-02-23T18:05:08;19.48;;;15.90;;
41952;SDS011;63613;28.200;112.870;2024-02-23T18:07:37;21.88;;;17.40;;
41952;SDS011;63613;28.200;112.870;2024-02-23T18:10:06;22.42;;;16.70;;
41952;SDS011;63613;28.200;112.870;2024-02-23T18:12:37;20.90;;;16.90;;
41952;SDS011;63613;28.200;112.870;2024-02-23T18:15:05;23.83;;;17.40;;
41952;SDS011;63613;28.200;112.870;2024-02-23T18:17:34;19.70;;;16.83;;
41952;SDS011;63613;28.200;112.870;2024-02-23T18:20:03;19.77;;;16.10;;
41952;SDS011;63613;28.200;112.870;2024-02-23T18:22:33;21.85;;;16.65;;
41952;SDS011;63613;28.200;112.870;2024-02-23T18:25:03;23.17;;;18.00;;
41952;SDS011;63613;28.200;112.870;2024-02-23T18:27:32;21.80;;;17.40;;
41952;SDS011;63613;28.200;112.870;2024-02-23T18:30:01;23.30;;;17.63;;
41952;SDS011;63613;28.200;112.870;2024-02-23T18:32:30;21.17;;;17.17;;
41952;SDS011;63613;28.200;112.870;2024-02-23T18:34:59;21.63;;;17.35;;
41952;SDS011;63613;28.200;112.870;2024-02-23T18:37:31;20.10;;;16.60;;
41952;SDS011;63613;28.200;112.870;2024-02-23T18:39:59;21.40;;;17.38;;
41952;SDS011;63613;28.200;112.870;2024-02-23T18:42:29;21.15;;;17.10;;
41952;SDS011;63613;28.200;112.870;2024-02-23T18:44:58;21.60;;;16.58;;
41952;SDS011;63613;28.200;112.870;2024-02-23T18:47:27;21.55;;;17.88;;
41952;SDS011;63613;28.200;112.870;2024-02-23T18:49:57;20.25;;;17.50;;
41952;SDS011;63613;28.200;112.870;2024-02-23T18:52:26;23.00;;;17.63;;
41952;SDS011;63613;28.200;112.870;2024-02-23T18:54:55;20.88;;;17.10;;
41952;SDS011;63613;28.200;112.870;2024-02-23T18:57:26;21.20;;;17.25;;
41952;SDS011;63613;28.200;112.870;2024-02-23T18:59:58;22.05;;;17.52;;
41952;SDS011;63613;28.200;112.870;2024-02-23T19:02:27;21.85;;;16.55;;
41952;SDS011;63613;28.200;112.870;2024-02-23T19:04:58;21.77;;;18.30;;
41952;SDS011;63613;28.200;112.870;2024-02-23T19:07:27;22.17;;;17.63;;
41952;SDS011;63613;28.200;112.870;2024-02-23T19:09:56;20.92;;;17.25;;
41952;SDS011;63613;28.200;112.870;2024-02-23T19:12:26;20.25;;;16.83;;
41952;SDS011;63613;28.200;112.870;2024-02-23T19:14:55;20.52;;;17.02;;
41952;SDS011;63613;28.200;112.870;2024-02-23T19:17:25;19.05;;;15.32;;
41952;SDS011;63613;28.200;112.870;2024-02-23T19:19:55;21.50;;;17.23;;
41952;SDS011;63613;28.200;112.870;2024-02-23T19:22:24;18.20;;;15.93;;
41952;SDS011;63613;28.200;112.870;2024-02-23T19:24:54;22.67;;;17.77;;
41952;SDS011;63613;28.200;112.870;2024-02-23T19:27:23;19.95;;;16.98;;
41952;SDS011;63613;28.200;112.870;2024-02-23T19:29:52;20.95;;;17.00;;
41952;SDS011;63613;28.200;112.870;2024-02-23T19:32:24;19.85;;;17.10;;
41952;SDS011;63613;28.200;112.870;2024-02-23T19:34:52;19.17;;;15.88;;
41952;SDS011;63613;28.200;112.870;2024-02-23T19:37:22;20.10;;;16.13;;
41952;SDS011;63613;28.200;112.870;2024-02-23T19:39:50;18.98;;;16.85;;
41952;SDS011;63613;28.200;112.870;2024-02-23T19:42:20;18.83;;;15.90;;
41952;SDS011;63613;28.200;112.870;2024-02-23T19:44:50;19.60;;;16.98;;
41952;SDS011;63613;28.200;112.870;2024-02-23T19:47:21;20.23;;;15.75;;
41952;SDS011;63613;28.200;112.870;2024-02-23T19:49:51;20.25;;;15.88;;
41952;SDS011;63613;28.200;112.870;2024-02-23T19:52:20;21.30;;;16.88;;
41952;SDS011;63613;28.200;112.870;2024-02-23T19:54:49;20.88;;;16.45;;
41952;SDS011;63613;28.200;112.870;2024-02-23T19:57:17;19.63;;;16.70;;
41952;SDS011;63613;28.200;112.870;2024-02-23T19:59:47;20.08;;;16.13;;
41952;SDS011;63613;28.200;112.870;2024-02-23T20:02:16;21.23;;;15.60;;
41952;SDS011;63613;28.200;112.870;2024-02-23T20:04:44;18.85;;;15.32;;
41952;SDS011;63613;28.200;112.870;2024-02-23T20:07:18;20.42;;;16.83;;
41952;SDS011;63613;28.200;112.870;2024-02-23T20:09:47;18.38;;;15.95;;
41952;SDS011;63613;28.200;112.870;2024-02-23T20:12:16;19.00;;;14.88;;
41952;SDS011;63613;28.200;112.870;2024-02-23T20:14:46;17.75;;;15.35;;
41952;SDS011;63613;28.200;112.870;2024-02-23T20:17:15;18.85;;;15.02;;
41952;SDS011;63613;28.200;112.870;2024-02-23T20:19:44;19.13;;;15.43;;
41952;SDS011;63613;28.200;112.870;2024-02-23T20:22:15;20.77;;;15.48;;
41952;SDS011;63613;28.200;112.870;2024-02-23T20:24:44;18.48;;;15.48;;
41952;SDS011;63613;28.200;112.870;2024-02-23T20:27:14;17.30;;;14.60;;
41952;SDS011;63613;28.200;112.870;2024-02-23T20:29:43;20.17;;;15.25;;
41952;SDS011;63613;28.200;112.870;2024-02-23T20:32:12;18.05;;;15.93;;
41952;SDS011;63613;28.200;112.870;2024-02-23T20:34:42;18.60;;;15.55;;
41952;SDS011;63613;28.200;112.870;2024-02-23T20:37:11;18.35;;;15.48;;
41952;SDS011;63613;28.200;112.870;2024-02-23T20:39:40;17.77;;;14.38;;
41952;SDS011;63613;28.200;112.870;2024-02-23T20:42:08;18.02;;;14.40;;
41952;SDS011;63613;28.200;112.870;2024-02-23T20:44:37;18.40;;;14.63;;
41952;SDS011;63613;28.200;112.870;2024-02-23T20:47:07;16.83;;;14.45;;
41952;SDS011;63613;28.200;112.870;2024-02-23T20:49:36;18.38;;;14.40;;
41952;SDS011;63613;28.200;112.870;2024-02-23T20:52:04;17.05;;;14.85;;
41952;SDS011;63613;28.200;112.870;2024-02-23T20:54:36;18.45;;;14.70;;
41952;SDS011;63613;28.200;112.870;2024-02-23T20:57:09;17.00;;;14.50;;
41952;SDS011;63613;28.200;112.870;2024-02-23T20:59:39;16.98;;;14.60;;
41952;SDS011;63613;28.200;112.870;2024-02-23T21:02:09;15.82;;;13.52;;
41952;SDS011;63613;28.200;112.870;2024-02-23T21:04:45;15.60;;;13.40;;
41952;SDS011;63613;28.200;112.870;2024-02-23T21:07:15;17.15;;;14.93;;
41952;SDS011;63613;28.200;112.870;2024-02-23T21:09:44;16.75;;;13.95;;
41952;SDS011;63613;28.200;112.870;2024-02-23T21:12:13;17.13;;;13.93;;
41952;SDS011;63613;28.200;112.870;2024-02-23T21:14:42;16.50;;;13.88;;
41952;SDS011;63613;28.200;112.870;2024-02-23T21:17:11;15.93;;;13.57;;
41952;SDS011;63613;28.200;112.870;2024-02-23T21:19:40;15.43;;;13.77;;
41952;SDS011;63613;28.200;112.870;2024-02-23T21:22:09;18.13;;;14.85;;
41952;SDS011;63613;28.200;112.870;2024-02-23T21:24:38;15.40;;;13.60;;
41952;SDS011;63613;28.200;112.870;2024-02-23T21:27:10;15.75;;;13.93;;
41952;SDS011;63613;28.200;112.870;2024-02-23T21:29:40;16.55;;;13.95;;
41952;SDS011;63613;28.200;112.870;2024-02-23T21:32:10;16.27;;;13.63;;
41952;SDS011;63613;28.200;112.870;2024-02-23T21:34:39;16.33;;;13.57;;
41952;SDS011;63613;28.200;112.870;2024-02-23T21:37:08;16.02;;;13.65;;
41952;SDS011;63613;28.200;112.870;2024-02-23T21:39:42;17.02;;;13.45;;
41952;SDS011;63613;28.200;112.870;2024-02-23T21:42:12;14.68;;;13.05;;
41952;SDS011;63613;28.200;112.870;2024-02-23T21:44:41;15.75;;;13.98;;
41952;SDS011;63613;28.200;112.870;2024-02-23T21:47:09;15.05;;;12.98;;
41952;SDS011;63613;28.200;112.870;2024-02-23T21:49:38;15.55;;;13.35;;
41952;SDS011;63613;28.200;112.870;2024-02-23T21:52:10;15.15;;;12.57;;
41952;SDS011;63613;28.200;112.870;2024-02-23T21:54:39;15.90;;;13.65;;
41952;SDS011;63613;28.200;112.870;2024-02-23T21:57:08;14.13;;;12.60;;
41952;SDS011;63613;28.200;112.870;2024-02-23T21:59:37;15.85;;;12.90;;
41952;SDS011;63613;28.200;112.870;2024-02-23T22:02:05;14.40;;;12.82;;
41952;SDS011;63613;28.200;112.870;2024-02-23T22:04:35;15.50;;;13.25;;
41952;SDS011;63613;28.200;112.870;2024-02-23T22:07:05;14.32;;;12.13;;
41952;SDS011;63613;28.200;112.870;2024-02-23T22:09:39;14.88;;;13.23;;
41952;SDS011;63613;28.200;112.870;2024-02-23T22:12:08;14.73;;;12.93;;
41952;SDS011;63613;28.200;112.870;2024-02-23T22:14:38;15.25;;;13.07;;
41952;SDS011;63613;28.200;112.870;2024-02-23T22:17:07;13.35;;;11.95;;
41952;SDS011;63613;28.200;112.870;2024-02-23T22:19:35;14.93;;;12.95;;
41952;SDS011;63613;28.200;112.870;2024-02-23T22:22:04;15.18;;;12.85;;
41952;SDS011;63613;28.200;112.870;2024-02-23T22:24:33;13.55;;;12.10;;
41952;SDS011;63613;28.200;112.870;2024-02-23T22:27:02;15.45;;;13.13;;
41952;SDS011;63613;28.200;112.870;2024-02-23T22:29:32;14.00;;;11.98;;
41952;SDS011;63613;28.200;112.870;2024-02-23T22:32:01;14.93;;;12.55;;
41952;SDS011;63613;28.200;112.870;2024-02-23T22:34:30;14.20;;;12.70;;
41952;SDS011;63613;28.200;112.870;2024-02-23T22:36:59;13.63;;;12.00;;
41952;SDS011;63613;28.200;112.870;2024-02-23T22:39:29;13.55;;;12.10;;
41952;SDS011;63613;28.200;112.870;2024-02-23T22:41:58;13.93;;;12.10;;
41952;SDS011;63613;28.200;112.870;2024-02-23T22:44:27;13.57;;;11.82;;
41952;SDS011;63613;28.200;112.870;2024-02-23T22:46:55;13.80;;;12.35;;
41952;SDS011;63613;28.200;112.870;2024-02-23T22:49:24;14.68;;;12.70;;
41952;SDS011;63613;28.200;112.870;2024-02-23T22:51:54;15.05;;;12.68;;
41952;SDS011;63613;28.200;112.870;2024-02-23T22:54:22;14.10;;;12.15;;
41952;SDS011;63613;28.200;112.870;2024-02-23T22:56:52;13.70;;;12.27;;
41952;SDS011;63613;28.200;112.870;2024-02-23T22:59:20;14.57;;;11.93;;
41952;SDS011;63613;28.200;112.870;2024-02-23T23:01:50;12.93;;;11.60;;
41952;SDS011;63613;28.200;112.870;2024-02-23T23:04:22;13.10;;;11.80;;
41952;SDS011;63613;28.200;112.870;2024-02-23T23:06:53;12.70;;;11.32;;
41952;SDS011;63613;28.200;112.870;2024-02-23T23:09:22;14.52;;;11.75;;
41952;SDS011;63613;28.200;112.870;2024-02-23T23:11:51;13.40;;;11.35;;
41952;SDS011;63613;28.200;112.870;2024-02-23T23:14:19;12.90;;;11.45;;
41952;SDS011;63613;28.200;112.870;2024-02-23T23:16:50;12.05;;;10.82;;
41952;SDS011;63613;28.200;112.870;2024-02-23T23:19:18;14.05;;;12.25;;
41952;SDS011;63613;28.200;112.870;2024-02-23T23:21:48;12.73;;;11.23;;
41952;SDS011;63613;28.200;112.870;2024-02-23T23:24:17;13.32;;;11.75;;
41952;SDS011;63613;28.200;112.870;2024-02-23T23:26:46;12.75;;;11.35;;
41952;SDS011;63613;28.200;112.870;2024-02-23T23:29:15;12.48;;;11.02;;
41952;SDS011;63613;28.200;112.870;2024-02-23T23:31:44;12.68;;;11.23;;
41952;SDS011;63613;28.200;112.870;2024-02-23T23:34:13;12.98;;;11.57;;
41952;SDS011;63613;28.200;112.870;2024-02-23T23:36:44;12.23;;;10.93;;
41952;SDS011;63613;28.200;112.870;2024-02-23T23:39:15;12.10;;;10.82;;
41952;SDS011;63613;28.200;112.870;2024-02-23T23:41:45;12.18;;;10.80;;
41952;SDS011;63613;28.200;112.870;2024-02-23T23:44:15;13.35;;;11.15;;
41952;SDS011;63613;28.200;112.870;2024-02-23T23:46:43;12.55;;;11.25;;
41952;SDS011;63613;28.200;112.870;2024-02-23T23:49:12;14.32;;;11.30;;
41952;SDS011;63613;28.200;112.870;2024-02-23T23:51:42;12.63;;;11.07;;
41952;SDS011;63613;28.200;112.870;2024-02-23T23:54:11;13.63;;;11.82;;
41952;SDS011;63613;28.200;112.870;2024-02-23T23:56:40;12.20;;;10.82;;
41952;SDS011;63613;28.200;112.870;2024-02-23T23:59:09;12.88;;;11.13;;
